Taos Pueblo, New Mexico
Current Conditions -  °F | °C
As of 11:35 PM on Friday 24 Oct 2014 (Local Time) from KSKX Reporting Station
Clear Clear  
Wind Chill: 36°   Ceiling: Unl
Heat Index: 41°   Visibility: 10mi
Dew Point: 19°   Wind: 7mph
Humidity: 42%   Direction: 10°N
Pressure: 30.39"   Gusts: NA
Location:  36.4227°N, 105.509°W
Report Text: KSKX 250535Z AUTO 01006KT 10SM CLR 05/M07 A3039 RMK AO1
Loading
Personal Weather Stations






























Interactive Weather Map New forecast layout! Learn more

10-Day Weather Forecast

Advertisements
Track Severe Weather on mobile